Time,TemperatureF,DewpointF,PressureIn,WindDirection,WindDirectionDegrees,WindSpeedMPH,WindSpeedGustMPH,Humidity,HourlyPrecipIn,Conditions,Clouds,dailyrainin,SolarRadiationWatts/m^2,SoftwareType,DateUTC
2013-01-30 00:00:00,50.6,49.8,29.32,WSW,248,3.0,8.0,97,0.01,RA,,0.40,0.0,WeatherDisplay:10.37,2013-01-30 05:00:00,
2013-01-30 00:05:00,50.5,49.7,29.33,WSW,248,3.0,8.0,97,0.01,RA,,0.41,0.0,WeatherDisplay:10.37,2013-01-30 05:05:00,
2013-01-30 00:10:00,50.5,49.7,29.33,WSW,248,3.0,8.0,97,0.01,RA,,0.41,0.0,WeatherDisplay:10.37,2013-01-30 05:10:00,
2013-01-30 00:15:00,50.5,49.7,29.32,WSW,248,3.0,6.0,97,0.02,RA,,0.43,0.0,WeatherDisplay:10.37,2013-01-30 05:15:00,
2013-01-30 00:20:00,50.5,49.7,29.32,WSW,248,3.0,6.0,97,0.02,RA,,0.43,0.0,WeatherDisplay:10.37,2013-01-30 05:20:00,
2013-01-30 00:25:00,50.4,49.6,29.32,WSW,248,3.0,5.0,97,0.01,RA,,0.44,0.0,WeatherDisplay:10.37,2013-01-30 05:25:00,
2013-01-30 00:30:00,50.4,49.6,29.32,WSW,248,3.0,5.0,97,0.01,RA,,0.44,0.0,WeatherDisplay:10.37,2013-01-30 05:30:00,
2013-01-30 00:35:00,50.2,49.4,29.31,WSW,239,2.0,4.0,97,0.01,RA,,0.45,0.0,WeatherDisplay:10.37,2013-01-30 05:35:00,
2013-01-30 00:40:00,50.2,49.4,29.31,SW,225,2.0,4.0,97,0.01,RA,,0.45,0.0,WeatherDisplay:10.37,2013-01-30 05:40:00,
2013-01-30 00:45:00,50.1,49.3,29.30,SW,233,1.0,3.0,97,0.01,RA,,0.46,0.0,WeatherDisplay:10.37,2013-01-30 05:45:00,
2013-01-30 00:50:00,50.1,49.3,29.30,WSW,248,1.0,3.0,97,0.01,RA,,0.46,0.0,WeatherDisplay:10.37,2013-01-30 05:50:00,
2013-01-30 00:55:00,49.9,49.1,29.29,WSW,248,1.0,3.0,97,0.01,RA,,0.47,0.0,WeatherDisplay:10.37,2013-01-30 05:55:00,
2013-01-30 01:00:00,49.9,49.1,29.29,WSW,248,1.0,3.0,97,0.01,RA,,0.47,0.0,WeatherDisplay:10.37,2013-01-30 06:00:00,
2013-01-30 01:05:00,49.7,48.9,29.29,WSW,248,0.0,0.0,97,0.00,CLR,,0.47,0.0,WeatherDisplay:10.37,2013-01-30 06:05:00,
2013-01-30 01:10:00,49.7,48.9,29.29,WSW,248,0.0,0.0,97,0.00,CLR,,0.47,0.0,WeatherDisplay:10.37,2013-01-30 06:10:00,
2013-01-30 01:15:00,49.7,48.9,29.28,WSW,248,1.0,3.0,97,0.01,RA,,0.48,0.0,WeatherDisplay:10.37,2013-01-30 06:15:00,
2013-01-30 01:20:00,49.7,48.9,29.28,WSW,248,1.0,3.0,97,0.01,RA,,0.48,0.0,WeatherDisplay:10.37,2013-01-30 06:20:00,
2013-01-30 01:25:00,48.8,47.7,29.27,South,185,2.0,4.0,96,0.00,CLR,,0.48,0.0,WeatherDisplay:10.37,2013-01-30 06:25:00,
2013-01-30 01:30:00,48.8,47.7,29.27,SSE,158,2.0,4.0,96,0.00,CLR,,0.48,0.0,WeatherDisplay:10.37,2013-01-30 06:30:00,
2013-01-30 01:35:00,48.7,47.9,29.26,SSE,147,2.0,4.0,97,0.00,CLR,,0.48,0.0,WeatherDisplay:10.37,2013-01-30 06:35:00,
2013-01-30 01:40:00,48.7,47.9,29.26,SE,135,2.0,4.0,97,0.00,CLR,,0.48,0.0,WeatherDisplay:10.37,2013-01-30 06:40:00,
2013-01-30 01:45:00,48.8,48.0,29.25,SE,135,2.0,6.0,97,0.00,CLR,,0.48,0.0,WeatherDisplay:10.37,2013-01-30 06:45:00,
2013-01-30 01:50:00,48.8,48.0,29.25,SE,135,2.0,6.0,97,0.00,CLR,,0.48,0.0,WeatherDisplay:10.37,2013-01-30 06:50:00,
2013-01-30 01:55:00,48.8,48.0,29.26,SE,135,2.0,5.0,97,0.00,CLR,,0.48,0.0,WeatherDisplay:10.37,2013-01-30 06:55:00,
2013-01-30 02:00:00,48.8,48.0,29.26,SE,135,2.0,5.0,97,0.00,CLR,,0.48,0.0,WeatherDisplay:10.37,2013-01-30 07:00:00,
2013-01-30 02:05:00,48.8,48.0,29.25,South,180,2.0,4.0,97,0.00,CLR,,0.48,0.0,WeatherDisplay:10.37,2013-01-30 07:05:00,
2013-01-30 02:10:00,48.8,48.0,29.25,SW,225,2.0,4.0,97,0.00,CLR,,0.48,0.0,WeatherDisplay:10.37,2013-01-30 07:10:00,
2013-01-30 02:15:00,48.7,47.9,29.24,SSW,210,1.0,4.0,97,0.00,CLR,,0.48,0.0,WeatherDisplay:10.37,2013-01-30 07:15:00,
2013-01-30 02:20:00,48.7,47.9,29.24,South,180,1.0,4.0,97,0.00,CLR,,0.48,0.0,WeatherDisplay:10.37,2013-01-30 07:20:00,
2013-01-30 02:25:00,48.6,47.8,29.22,South,180,0.0,2.0,97,0.00,CLR,,0.48,3.0,WeatherDisplay:10.37,2013-01-30 07:25:00,
2013-01-30 02:30:00,48.6,47.8,29.22,South,180,0.0,2.0,97,0.00,CLR,,0.48,3.0,WeatherDisplay:10.37,2013-01-30 07:30:00,
2013-01-30 02:35:00,47.9,47.1,29.21,South,180,2.0,3.0,97,0.00,CLR,,0.48,6.0,WeatherDisplay:10.37,2013-01-30 07:35:00,
2013-01-30 02:40:00,47.9,47.1,29.21,South,180,2.0,3.0,97,0.00,CLR,,0.48,6.0,WeatherDisplay:10.37,2013-01-30 07:40:00,
2013-01-30 02:45:00,48.2,47.4,29.26,SW,236,3.0,6.0,97,0.00,CLR,,0.48,11.0,WeatherDisplay:10.37,2013-01-30 07:45:00,
2013-01-30 02:50:00,48.2,47.4,29.26,West,270,3.0,6.0,97,0.00,CLR,,0.48,11.0,WeatherDisplay:10.37,2013-01-30 07:50:00,
2013-01-30 02:55:00,48.3,47.5,29.26,West,270,3.0,7.0,97,0.00,CLR,,0.48,15.0,WeatherDisplay:10.37,2013-01-30 07:55:00,
2013-01-30 03:00:00,48.3,47.5,29.26,West,270,3.0,7.0,97,0.00,OVC,,0.48,15.0,WeatherDisplay:10.37,2013-01-30 08:00:00,
2013-01-30 03:05:00,48.3,47.5,29.26,West,270,2.0,4.0,97,0.00,OVC,,0.48,17.0,WeatherDisplay:10.37,2013-01-30 08:05:00,
2013-01-30 03:10:00,48.3,47.5,29.26,West,270,2.0,4.0,97,0.00,OVC,,0.48,17.0,WeatherDisplay:10.37,2013-01-30 08:10:00,
2013-01-30 03:15:00,48.1,47.3,29.25,West,270,1.0,3.0,97,0.00,OVC,,0.48,18.0,WeatherDisplay:10.37,2013-01-30 08:15:00,
2013-01-30 03:20:00,48.1,47.3,29.25,West,270,1.0,3.0,97,0.00,OVC,,0.48,18.0,WeatherDisplay:10.37,2013-01-30 08:20:00,
2013-01-30 03:25:00,48.1,47.3,29.24,West,270,0.0,2.0,97,0.00,OVC,,0.48,25.0,WeatherDisplay:10.37,2013-01-30 08:25:00,
2013-01-30 03:30:00,48.1,47.3,29.24,West,270,0.0,2.0,97,0.00,OVC,,0.48,25.0,WeatherDisplay:10.37,2013-01-30 08:30:00,
2013-01-30 03:35:00,48.1,47.3,29.23,West,270,0.0,1.0,97,0.00,OVC,,0.48,40.0,WeatherDisplay:10.37,2013-01-30 08:35:00,
2013-01-30 03:40:00,48.1,47.3,29.23,West,270,0.0,1.0,97,0.00,OVC,,0.48,40.0,WeatherDisplay:10.37,2013-01-30 08:40:00,
2013-01-30 03:45:00,48.4,47.6,29.26,West,280,1.0,4.0,97,0.00,OVC,,0.48,66.0,WeatherDisplay:10.37,2013-01-30 08:45:00,
2013-01-30 03:50:00,48.4,47.6,29.26,WNW,292,1.0,4.0,97,0.00,OVC,,0.48,66.0,WeatherDisplay:10.37,2013-01-30 08:50:00,
2013-01-30 03:55:00,48.7,47.9,29.28,West,274,3.0,7.0,97,0.00,OVC,,0.48,74.0,WeatherDisplay:10.37,2013-01-30 08:55:00,
2013-01-30 04:00:00,48.7,47.9,29.28,West,270,3.0,7.0,97,0.00,OVC,,0.48,74.0,WeatherDisplay:10.37,2013-01-30 09:00:00,
2013-01-30 04:05:00,48.8,48.0,29.28,West,261,3.0,5.0,97,0.00,OVC,,0.48,48.0,WeatherDisplay:10.37,2013-01-30 09:05:00,
2013-01-30 04:10:00,48.8,48.0,29.28,WSW,248,3.0,5.0,97,0.00,OVC,,0.48,48.0,WeatherDisplay:10.37,2013-01-30 09:10:00,
2013-01-30 04:15:00,49.0,48.2,29.27,WSW,239,2.0,5.0,97,0.00,OVC,,0.48,46.0,WeatherDisplay:10.37,2013-01-30 09:15:00,
2013-01-30 04:20:00,49.0,48.2,29.27,SW,225,2.0,5.0,97,0.00,OVC,,0.48,46.0,WeatherDisplay:10.37,2013-01-30 09:20:00,
2013-01-30 04:25:00,49.0,48.2,29.28,SSW,211,3.0,6.0,97,0.00,OVC,,0.48,39.0,WeatherDisplay:10.37,2013-01-30 09:25:00,
2013-01-30 04:30:00,49.0,48.2,29.28,SSW,202,3.0,6.0,97,0.00,OVC,,0.48,39.0,WeatherDisplay:10.37,2013-01-30 09:30:00,
2013-01-30 04:35:00,49.0,48.2,29.29,SSW,213,3.0,5.0,97,0.00,OVC,,0.48,63.0,WeatherDisplay:10.37,2013-01-30 09:35:00,
2013-01-30 04:40:00,49.0,48.2,29.29,SW,225,3.0,5.0,97,0.00,OVC,,0.48,63.0,WeatherDisplay:10.37,2013-01-30 09:40:00,
2013-01-30 04:45:00,49.2,48.7,29.28,SW,225,3.0,6.0,98,0.00,OVC,,0.48,75.0,WeatherDisplay:10.37,2013-01-30 09:45:00,
2013-01-30 04:50:00,49.2,48.7,29.28,SW,225,3.0,6.0,98,0.00,OVC,,0.48,75.0,WeatherDisplay:10.37,2013-01-30 09:50:00,
2013-01-30 04:55:00,49.4,48.9,29.29,SSW,213,3.0,6.0,98,0.00,OVC,,0.48,69.0,WeatherDisplay:10.37,2013-01-30 09:55:00,
2013-01-30 05:00:00,49.4,48.9,29.29,SSW,202,3.0,6.0,98,0.00,OVC,,0.48,69.0,WeatherDisplay:10.37,2013-01-30 10:00:00,
2013-01-30 05:05:00,49.5,49.0,29.27,SSW,211,2.0,5.0,98,0.00,OVC,,0.48,76.0,WeatherDisplay:10.37,2013-01-30 10:05:00,
2013-01-30 05:10:00,49.5,49.0,29.27,SW,225,2.0,5.0,98,0.00,OVC,,0.48,76.0,WeatherDisplay:10.37,2013-01-30 10:10:00,
2013-01-30 05:15:00,49.5,49.0,29.27,SW,225,2.0,5.0,98,0.00,OVC,,0.48,52.0,WeatherDisplay:10.37,2013-01-30 10:15:00,
2013-01-30 05:20:00,49.5,49.0,29.27,SW,225,2.0,5.0,98,0.00,OVC,,0.48,52.0,WeatherDisplay:10.37,2013-01-30 10:20:00,
2013-01-30 05:25:00,49.6,49.1,29.27,SW,236,2.0,5.0,98,0.00,OVC,,0.48,63.0,WeatherDisplay:10.37,2013-01-30 10:25:00,
2013-01-30 05:30:00,49.6,49.1,29.27,WSW,248,2.0,5.0,98,0.00,OVC,,0.48,63.0,WeatherDisplay:10.37,2013-01-30 10:30:00,
2013-01-30 05:35:00,49.2,48.7,29.26,SW,234,3.0,9.0,98,0.00,OVC,,0.48,48.0,WeatherDisplay:10.37,2013-01-30 10:35:00,
2013-01-30 05:40:00,49.2,48.7,29.26,SW,225,3.0,9.0,98,0.00,OVC,,0.48,48.0,WeatherDisplay:10.37,2013-01-30 10:40:00,
2013-01-30 05:45:00,47.0,46.2,29.27,NW,312,3.0,10.0,97,0.00,OVC,,0.48,51.0,WeatherDisplay:10.37,2013-01-30 10:45:00,
2013-01-30 05:50:00,47.0,46.2,29.27,North,0,3.0,10.0,97,0.00,OVC,,0.48,51.0,WeatherDisplay:10.37,2013-01-30 10:50:00,
2013-01-30 05:55:00,46.3,45.5,29.24,NNE,19,3.0,6.0,97,0.00,OVC,,0.48,40.0,WeatherDisplay:10.37,2013-01-30 10:55:00,
2013-01-30 06:00:00,46.3,45.5,29.24,NE,45,3.0,6.0,97,0.00,OVC,,0.48,40.0,WeatherDisplay:10.37,2013-01-30 11:00:00,
2013-01-30 06:05:00,45.8,45.0,29.23,NE,34,3.0,6.0,97,0.00,OVC,,0.48,45.0,WeatherDisplay:10.37,2013-01-30 11:05:00,
2013-01-30 06:10:00,45.8,45.0,29.23,NNE,22,3.0,6.0,97,0.00,OVC,,0.48,45.0,WeatherDisplay:10.37,2013-01-30 11:10:00,
2013-01-30 06:15:00,44.9,44.1,29.24,North,11,3.0,6.0,97,0.00,OVC,,0.48,50.0,WeatherDisplay:10.37,2013-01-30 11:15:00,
2013-01-30 06:20:00,44.9,44.1,29.24,North,0,3.0,6.0,97,0.00,OVC,,0.48,50.0,WeatherDisplay:10.37,2013-01-30 11:20:00,
2013-01-30 06:25:00,44.1,43.3,29.24,North,11,3.0,7.0,97,0.00,OVC,,0.48,42.0,WeatherDisplay:10.37,2013-01-30 11:25:00,
2013-01-30 06:30:00,44.1,43.3,29.24,NNE,22,3.0,7.0,97,0.00,OVC,,0.48,42.0,WeatherDisplay:10.37,2013-01-30 11:30:00,
2013-01-30 06:35:00,43.8,43.0,29.23,NNE,22,2.0,4.0,97,0.00,OVC,,0.48,46.0,WeatherDisplay:10.37,2013-01-30 11:35:00,
2013-01-30 06:40:00,43.8,43.0,29.23,NNE,22,2.0,4.0,97,0.00,OVC,,0.48,46.0,WeatherDisplay:10.37,2013-01-30 11:40:00,
2013-01-30 06:45:00,44.0,43.2,29.23,NNE,22,1.0,3.0,97,0.00,OVC,,0.48,55.0,WeatherDisplay:10.37,2013-01-30 11:45:00,
2013-01-30 06:50:00,44.0,43.2,29.23,NNE,22,1.0,3.0,97,0.00,OVC,,0.48,55.0,WeatherDisplay:10.37,2013-01-30 11:50:00,
2013-01-30 06:55:00,44.5,43.7,29.21,NNE,22,1.0,5.0,97,0.00,OVC,,0.48,62.0,WeatherDisplay:10.37,2013-01-30 11:55:00,
2013-01-30 07:00:00,44.5,43.7,29.21,NNE,22,1.0,5.0,97,0.00,OVC,,0.48,62.0,WeatherDisplay:10.37,2013-01-30 12:00:00,
2013-01-30 07:05:00,44.8,44.0,29.20,NE,53,2.0,6.0,97,0.00,OVC,,0.48,76.0,WeatherDisplay:10.37,2013-01-30 12:05:00,
2013-01-30 07:10:00,44.8,44.0,29.20,ENE,68,2.0,6.0,97,0.00,OVC,,0.48,76.0,WeatherDisplay:10.37,2013-01-30 12:10:00,
2013-01-30 07:15:00,45.1,44.6,29.18,East,81,3.0,6.0,98,0.00,OVC,,0.48,92.0,WeatherDisplay:10.37,2013-01-30 12:15:00,
2013-01-30 07:20:00,45.1,44.6,29.18,East,90,3.0,6.0,98,0.00,OVC,,0.48,92.0,WeatherDisplay:10.37,2013-01-30 12:20:00,
2013-01-30 07:25:00,45.2,44.7,29.18,East,81,2.0,5.0,98,0.00,OVC,,0.48,97.0,WeatherDisplay:10.37,2013-01-30 12:25:00,
2013-01-30 07:30:00,45.2,44.7,29.18,ENE,68,2.0,5.0,98,0.00,OVC,,0.48,97.0,WeatherDisplay:10.37,2013-01-30 12:30:00,
2013-01-30 07:35:00,45.5,44.7,29.17,ENE,68,1.0,3.0,97,0.00,OVC,,0.48,99.0,WeatherDisplay:10.37,2013-01-30 12:35:00,
2013-01-30 07:40:00,45.5,44.7,29.17,ENE,68,1.0,3.0,97,0.00,OVC,,0.48,99.0,WeatherDisplay:10.37,2013-01-30 12:40:00,
2013-01-30 07:45:00,46.0,45.5,29.18,East,83,2.0,3.0,98,0.00,OVC,,0.48,116.0,WeatherDisplay:10.37,2013-01-30 12:45:00,
2013-01-30 07:50:00,46.0,45.5,29.18,East,90,2.0,3.0,98,0.00,OVC,,0.48,116.0,WeatherDisplay:10.37,2013-01-30 12:50:00,
2013-01-30 07:55:00,46.3,45.8,29.18,East,90,1.0,3.0,98,0.00,OVC,,0.48,113.0,WeatherDisplay:10.37,2013-01-30 12:55:00,
2013-01-30 08:00:00,46.3,45.8,29.18,East,90,1.0,3.0,98,0.00,CLR,,0.48,113.0,WeatherDisplay:10.37,2013-01-30 13:00:00,
2013-01-30 08:05:00,47.1,46.6,29.18,East,90,0.0,0.0,98,0.00,CLR,,0.48,143.0,WeatherDisplay:10.37,2013-01-30 13:05:00,
2013-01-30 08:10:00,47.1,46.6,29.18,East,90,0.0,0.0,98,0.00,CLR,,0.48,143.0,WeatherDisplay:10.37,2013-01-30 13:10:00,
2013-01-30 08:15:00,48.1,47.6,29.18,East,90,1.0,3.0,98,0.00,CLR,,0.48,67.0,WeatherDisplay:10.37,2013-01-30 13:15:00,
2013-01-30 08:20:00,48.1,47.6,29.18,East,90,1.0,3.0,98,0.00,CLR,,0.48,67.0,WeatherDisplay:10.37,2013-01-30 13:20:00,
2013-01-30 08:25:00,49.3,48.8,29.17,SSE,153,2.0,5.0,98,0.00,FEW,,0.48,45.0,WeatherDisplay:10.37,2013-01-30 13:25:00,
2013-01-30 08:30:00,49.3,48.8,29.17,South,180,2.0,5.0,98,0.00,SCT,,0.48,45.0,WeatherDisplay:10.37,2013-01-30 13:30:00,
2013-01-30 08:35:00,50.6,50.1,29.18,SSW,197,6.0,12.0,98,0.00,SCT,,0.48,55.0,WeatherDisplay:10.37,2013-01-30 13:35:00,
2013-01-30 08:40:00,50.6,50.1,29.18,SSW,202,6.0,12.0,98,0.00,SCT,,0.48,55.0,WeatherDisplay:10.37,2013-01-30 13:40:00,
2013-01-30 08:45:00,51.1,50.6,29.16,SSW,202,8.0,14.0,98,0.00,SCT,,0.48,57.0,WeatherDisplay:10.37,2013-01-30 13:45:00,
2013-01-30 08:50:00,51.1,50.6,29.16,SSW,202,8.0,14.0,98,0.00,SCT,,0.48,57.0,WeatherDisplay:10.37,2013-01-30 13:50:00,
2013-01-30 08:55:00,51.4,50.9,29.15,SSW,202,6.0,12.0,98,0.00,SCT,,0.48,75.0,WeatherDisplay:10.37,2013-01-30 13:55:00,
2013-01-30 09:00:00,51.4,50.9,29.15,SSW,202,6.0,12.0,98,0.00,SCT,,0.48,75.0,WeatherDisplay:10.37,2013-01-30 14:00:00,
2013-01-30 09:05:00,51.4,50.9,29.14,SSW,202,6.0,15.0,98,0.00,BKN,,0.48,62.0,WeatherDisplay:10.37,2013-01-30 14:05:00,
2013-01-30 09:10:00,51.4,50.9,29.14,SSW,202,6.0,15.0,98,0.00,BKN,,0.48,62.0,WeatherDisplay:10.37,2013-01-30 14:10:00,
2013-01-30 09:15:00,51.5,51.0,29.14,SSW,202,6.0,13.0,98,0.00,BKN,,0.48,61.0,WeatherDisplay:10.37,2013-01-30 14:15:00,
2013-01-30 09:20:00,51.5,51.0,29.14,SSW,202,6.0,13.0,98,0.00,BKN,,0.48,61.0,WeatherDisplay:10.37,2013-01-30 14:20:00,
2013-01-30 09:25:00,51.6,50.5,29.15,SSW,202,7.0,13.0,96,0.00,BKN,,0.48,77.0,WeatherDisplay:10.37,2013-01-30 14:25:00,
2013-01-30 09:30:00,51.6,50.5,29.15,SSW,202,7.0,13.0,96,0.00,BKN,,0.48,77.0,WeatherDisplay:10.37,2013-01-30 14:30:00,
2013-01-30 09:35:00,51.6,50.2,29.14,SSW,202,7.0,16.0,95,0.00,BKN,,0.48,88.0,WeatherDisplay:10.37,2013-01-30 14:35:00,
2013-01-30 09:40:00,51.6,50.2,29.14,SSW,202,7.0,16.0,95,0.00,BKN,,0.48,88.0,WeatherDisplay:10.37,2013-01-30 14:40:00,
2013-01-30 09:45:00,51.6,49.9,29.13,SSW,202,8.0,15.0,94,0.00,BKN,,0.48,52.0,WeatherDisplay:10.37,2013-01-30 14:45:00,
2013-01-30 09:50:00,51.6,49.9,29.13,SSW,202,8.0,15.0,94,0.00,BKN,,0.48,52.0,WeatherDisplay:10.37,2013-01-30 14:50:00,
2013-01-30 09:55:00,51.6,49.6,29.10,SSW,202,8.0,13.0,93,0.00,BKN,,0.48,40.0,WeatherDisplay:10.37,2013-01-30 14:55:00,
2013-01-30 10:00:00,51.6,49.6,29.10,SSW,202,8.0,13.0,93,0.00,BKN,,0.48,40.0,WeatherDisplay:10.37,2013-01-30 15:00:00,
2013-01-30 10:05:00,51.4,49.4,29.11,SSW,213,8.0,16.0,93,0.00,BKN,,0.48,23.0,WeatherDisplay:10.37,2013-01-30 15:05:00,
2013-01-30 10:10:00,51.4,49.4,29.11,SW,225,8.0,16.0,93,0.00,BKN,,0.48,23.0,WeatherDisplay:10.37,2013-01-30 15:10:00,
2013-01-30 10:15:00,51.2,49.5,29.12,SW,225,8.0,14.0,94,0.00,BKN,,0.48,21.0,WeatherDisplay:10.37,2013-01-30 15:15:00,
2013-01-30 10:20:00,51.2,49.5,29.12,SW,225,8.0,14.0,94,0.00,BKN,,0.48,21.0,WeatherDisplay:10.37,2013-01-30 15:20:00,
2013-01-30 10:25:00,51.1,49.4,29.13,SSW,213,8.0,17.0,94,0.00,BKN,,0.48,33.0,WeatherDisplay:10.37,2013-01-30 15:25:00,
2013-01-30 10:30:00,51.1,49.4,29.13,SSW,202,8.0,17.0,94,0.00,BKN,,0.48,33.0,WeatherDisplay:10.37,2013-01-30 15:30:00,
2013-01-30 10:35:00,51.1,49.1,29.13,SSW,202,10.0,18.0,93,0.00,BKN,,0.48,26.0,WeatherDisplay:10.37,2013-01-30 15:35:00,
2013-01-30 10:40:00,51.1,49.1,29.13,SSW,202,10.0,18.0,93,0.00,BKN,,0.48,26.0,WeatherDisplay:10.37,2013-01-30 15:40:00,
2013-01-30 10:45:00,51.2,49.2,29.12,SSW,212,8.0,16.0,93,0.00,BKN,,0.48,23.0,WeatherDisplay:10.37,2013-01-30 15:45:00,
2013-01-30 10:50:00,51.2,49.2,29.12,SW,225,8.0,16.0,93,0.00,BKN,,0.48,23.0,WeatherDisplay:10.37,2013-01-30 15:50:00,
2013-01-30 10:55:00,51.1,49.1,29.12,SW,225,9.0,20.0,93,0.00,CLR,,0.48,17.0,WeatherDisplay:10.37,2013-01-30 15:55:00,
2013-01-30 11:00:00,51.1,49.1,29.12,SW,225,9.0,20.0,93,0.00,CLR,,0.48,17.0,WeatherDisplay:10.37,2013-01-30 16:00:00,
2013-01-30 11:05:00,51.0,48.8,29.12,SW,225,8.0,15.0,92,0.00,CLR,,0.48,10.0,WeatherDisplay:10.37,2013-01-30 16:05:00,
2013-01-30 11:10:00,51.0,48.8,29.12,SW,225,8.0,15.0,92,0.00,CLR,,0.48,10.0,WeatherDisplay:10.37,2013-01-30 16:10:00,
2013-01-30 11:15:00,50.9,48.7,29.11,SW,225,9.0,16.0,92,0.00,CLR,,0.48,14.0,WeatherDisplay:10.37,2013-01-30 16:15:00,
2013-01-30 11:20:00,50.9,48.7,29.11,SW,225,9.0,16.0,92,0.00,CLR,,0.48,14.0,WeatherDisplay:10.37,2013-01-30 16:20:00,
2013-01-30 11:25:00,50.8,48.6,29.10,SW,215,7.0,12.0,92,0.00,CLR,,0.48,8.0,WeatherDisplay:10.37,2013-01-30 16:25:00,
2013-01-30 11:30:00,50.8,48.6,29.10,SSW,202,7.0,12.0,92,0.00,CLR,,0.48,8.0,WeatherDisplay:10.37,2013-01-30 16:30:00,
2013-01-30 11:35:00,50.6,48.1,29.10,SSW,213,7.0,12.0,91,0.00,CLR,,0.48,4.0,WeatherDisplay:10.37,2013-01-30 16:35:00,
2013-01-30 11:40:00,50.6,48.1,29.10,SW,225,7.0,12.0,91,0.00,CLR,,0.48,4.0,WeatherDisplay:10.37,2013-01-30 16:40:00,
2013-01-30 11:45:00,50.5,48.0,29.09,SW,214,6.0,11.0,91,0.00,CLR,,0.48,0.0,WeatherDisplay:10.37,2013-01-30 16:45:00,
2013-01-30 11:50:00,50.5,48.0,29.09,SSW,202,6.0,11.0,91,0.00,CLR,,0.48,0.0,WeatherDisplay:10.37,2013-01-30 16:50:00,
2013-01-30 11:55:00,50.5,48.0,29.08,SSW,202,6.0,13.0,91,0.00,CLR,,0.48,0.0,WeatherDisplay:10.37,2013-01-30 16:55:00,
2013-01-30 12:00:00,50.5,48.0,29.08,SSW,202,6.0,13.0,91,0.00,CLR,,0.48,0.0,WeatherDisplay:10.37,2013-01-30 17:00:00,
2013-01-30 12:05:00,50.6,48.1,29.08,SSW,202,6.0,11.0,91,0.00,CLR,,0.48,0.0,WeatherDisplay:10.37,2013-01-30 17:05:00,
2013-01-30 12:10:00,50.6,48.1,29.08,SSW,202,6.0,11.0,91,0.00,CLR,,0.48,0.0,WeatherDisplay:10.37,2013-01-30 17:10:00,
2013-01-30 12:15:00,50.6,48.1,29.08,SSW,202,5.0,10.0,91,0.00,CLR,,0.48,0.0,WeatherDisplay:10.37,2013-01-30 17:15:00,
2013-01-30 12:20:00,50.6,48.1,29.08,SSW,202,5.0,10.0,91,0.00,CLR,,0.48,0.0,WeatherDisplay:10.37,2013-01-30 17:20:00,
2013-01-30 12:25:00,49.1,46.0,29.10,SSW,202,9.0,24.0,89,0.03,RA,,0.51,0.0,WeatherDisplay:10.37,2013-01-30 17:25:00,
2013-01-30 12:30:00,49.1,46.0,29.10,SSW,202,9.0,24.0,89,0.03,RA,,0.51,0.0,WeatherDisplay:10.37,2013-01-30 17:30:00,
2013-01-30 12:35:00,46.1,42.7,29.09,SW,229,13.0,26.0,88,0.01,RA,,0.52,0.0,WeatherDisplay:10.37,2013-01-30 17:35:00,
2013-01-30 12:40:00,46.1,42.7,29.09,WSW,248,13.0,26.0,88,0.01,RA,,0.52,0.0,WeatherDisplay:10.37,2013-01-30 17:40:00,
2013-01-30 12:45:00,45.4,42.6,29.09,WSW,248,9.0,16.0,90,0.00,CLR,,0.52,0.0,WeatherDisplay:10.37,2013-01-30 17:45:00,
2013-01-30 12:50:00,45.4,42.6,29.09,WSW,248,9.0,16.0,90,0.00,CLR,,0.52,0.0,WeatherDisplay:10.37,2013-01-30 17:50:00,
2013-01-30 12:55:00,45.2,42.2,29.10,SW,236,9.0,16.0,89,0.00,CLR,,0.52,0.0,WeatherDisplay:10.37,2013-01-30 17:55:00,
2013-01-30 13:00:00,45.2,42.2,29.10,SW,225,9.0,16.0,89,0.00,CLR,,0.52,0.0,WeatherDisplay:10.37,2013-01-30 18:00:00,
2013-01-30 13:05:00,45.0,42.2,29.10,SW,236,9.0,16.0,90,0.00,CLR,,0.52,0.0,WeatherDisplay:10.37,2013-01-30 18:05:00,
2013-01-30 13:10:00,45.0,42.2,29.10,WSW,248,9.0,16.0,90,0.00,CLR,,0.52,0.0,WeatherDisplay:10.37,2013-01-30 18:10:00,
2013-01-30 13:15:00,44.6,41.8,29.10,WSW,248,9.0,15.0,90,0.01,RA,,0.53,0.0,WeatherDisplay:10.37,2013-01-30 18:15:00,
2013-01-30 13:20:00,44.6,41.8,29.10,WSW,248,9.0,15.0,90,0.01,RA,,0.53,0.0,WeatherDisplay:10.37,2013-01-30 18:20:00,
2013-01-30 13:25:00,44.6,41.8,29.11,SW,236,9.0,17.0,90,0.00,CLR,,0.53,0.0,WeatherDisplay:10.37,2013-01-30 18:25:00,
2013-01-30 13:30:00,44.6,41.8,29.11,SW,225,9.0,17.0,90,0.00,CLR,,0.53,0.0,WeatherDisplay:10.37,2013-01-30 18:30:00,
2013-01-30 13:35:00,44.5,41.7,29.11,SW,225,9.0,19.0,90,0.00,CLR,,0.53,0.0,WeatherDisplay:10.37,2013-01-30 18:35:00,
2013-01-30 13:40:00,44.5,41.7,29.11,SW,225,9.0,19.0,90,0.00,CLR,,0.53,0.0,WeatherDisplay:10.37,2013-01-30 18:40:00,
2013-01-30 19:44:00,44.3,41.3,29.09,SSW,196,29.0,29.0,89,0.01,CLR,,0.53,0.0,WeatherDisplay:10.37,2013-01-31 00:44:00,
2013-01-30 19:49:00,44.1,41.1,29.08,SSW,206,8.1,8.1,89,0.01,CLR,,0.53,0.0,WeatherDisplay:10.37,2013-01-31 00:49:00,
2013-01-30 19:54:00,44.0,41.0,29.09,SSW,211,11.5,11.5,89,0.01,CLR,,0.53,0.0,WeatherDisplay:10.37,2013-01-31 00:54:00,
2013-01-30 19:59:00,43.9,40.9,29.10,West,260,13.8,13.8,89,0.01,CLR,,0.53,0.0,WeatherDisplay:10.37,2013-01-31 00:59:00,
2013-01-30 20:04:00,43.9,40.9,29.10,WSW,238,13.8,13.8,89,0.01,CLR,,0.53,0.0,WeatherDisplay:10.37,2013-01-31 01:04:00,
2013-01-30 20:09:00,43.8,40.8,29.10,SSW,198,12.7,12.7,89,0.01,CLR,,0.53,0.0,WeatherDisplay:10.37,2013-01-31 01:09:00,
2013-01-30 20:14:00,43.7,40.7,29.09,WSW,247,10.4,10.4,89,0.00,CLR,,0.53,0.0,WeatherDisplay:10.37,2013-01-31 01:14:00,
2013-01-30 20:19:00,43.6,40.9,29.10,WSW,249,15.0,15.0,90,0.00,CLR,,0.53,0.0,WeatherDisplay:10.37,2013-01-31 01:19:00,
2013-01-30 20:24:00,43.5,40.8,29.10,WSW,243,17.3,17.3,90,0.00,CLR,,0.53,0.0,WeatherDisplay:10.37,2013-01-31 01:24:00,
2013-01-30 20:29:00,43.4,40.7,29.11,WSW,238,18.4,18.4,90,0.00,CLR,,0.53,0.0,WeatherDisplay:10.37,2013-01-31 01:29:00,
2013-01-30 20:34:00,43.4,40.7,29.11,SW,229,15.0,15.0,90,0.00,CLR,,0.53,0.0,WeatherDisplay:10.37,2013-01-31 01:34:00,
2013-01-30 20:39:00,43.3,40.6,29.11,WSW,249,16.1,16.1,90,0.01,RA,,0.54,0.0,WeatherDisplay:10.37,2013-01-31 01:39:00,
2013-01-30 20:44:00,43.1,40.4,29.10,WSW,252,19.6,19.6,90,0.01,RA,,0.54,0.0,WeatherDisplay:10.37,2013-01-31 01:44:00,
2013-01-30 20:49:00,42.8,40.4,29.10,WSW,255,22.0,22.0,91,0.01,,,0.54,0.0,WeatherDisplay:10.37,2013-01-31 01:49:00,
2013-01-30 20:54:00,42.4,39.7,29.10,WSW,253,14.0,14.0,90,0.02,RA,,0.55,0.0,WeatherDisplay:10.37,2013-01-31 01:54:00,
2013-01-30 20:59:00,41.8,39.1,29.10,WSW,250,11.5,11.5,90,0.02,RA,,0.55,0.0,WeatherDisplay:10.37,2013-01-31 01:59:00,
2013-01-30 21:04:00,40.8,38.1,29.11,WNW,298,17.3,17.3,90,0.02,CLR,,0.55,0.0,WeatherDisplay:10.37,2013-01-31 02:04:00,
2013-01-30 21:09:00,39.8,37.4,29.11,WSW,255,13.8,13.8,91,0.02,CLR,,0.55,0.0,WeatherDisplay:10.37,2013-01-31 02:09:00,
2013-01-30 21:14:00,39.2,37.1,29.11,West,271,15.0,15.0,92,0.03,RA,,0.56,0.0,WeatherDisplay:10.37,2013-01-31 02:14:00,
2013-01-30 21:19:00,39.1,37.0,29.12,West,263,12.7,12.7,92,0.03,RA,,0.56,0.0,WeatherDisplay:10.37,2013-01-31 02:19:00,
2013-01-30 21:24:00,38.9,36.8,29.12,WSW,257,15.0,15.0,92,0.03,,,0.56,0.0,WeatherDisplay:10.37,2013-01-31 02:24:00,
2013-01-30 21:29:00,38.9,36.8,29.12,WSW,256,13.0,13.0,92,0.03,CLR,,0.56,0.0,WeatherDisplay:10.37,2013-01-31 02:29:00,
2013-01-30 21:34:00,38.8,36.7,29.11,West,266,13.8,13.8,92,0.03,CLR,,0.56,0.0,WeatherDisplay:10.37,2013-01-31 02:34:00,
2013-01-30 21:39:00,38.7,36.6,29.11,West,265,17.3,17.3,92,0.02,CLR,,0.56,0.0,WeatherDisplay:10.37,2013-01-31 02:39:00,
2013-01-30 21:44:00,38.7,36.6,29.11,WSW,244,19.6,19.6,92,0.02,CLR,,0.56,0.0,WeatherDisplay:10.37,2013-01-31 02:44:00,
2013-01-30 21:49:00,38.6,36.2,29.12,WNW,290,17.3,17.3,91,0.02,CLR,,0.56,0.0,WeatherDisplay:10.37,2013-01-31 02:49:00,
2013-01-30 21:54:00,38.5,35.8,29.12,SW,236,25.3,25.3,90,0.01,CLR,,0.56,0.0,WeatherDisplay:10.37,2013-01-31 02:54:00,
2013-01-30 21:59:00,38.3,35.6,29.13,West,275,19.6,19.6,90,0.01,CLR,,0.56,0.0,WeatherDisplay:10.37,2013-01-31 02:59:00,
2013-01-30 22:04:00,38.0,35.0,29.13,West,259,21.0,21.0,89,0.01,CLR,,0.56,0.0,WeatherDisplay:10.37,2013-01-31 03:04:00,
2013-01-30 22:09:00,37.6,34.7,29.14,West,269,20.7,20.7,89,0.01,CLR,,0.56,0.0,WeatherDisplay:10.37,2013-01-31 03:09:00,
2013-01-30 22:14:00,37.2,34.3,29.15,SW,232,19.6,19.6,89,0.00,CLR,,0.56,0.0,WeatherDisplay:10.37,2013-01-31 03:14:00,
2013-01-30 22:19:00,37.0,34.3,29.15,WSW,242,16.1,16.1,90,0.00,CLR,,0.56,0.0,WeatherDisplay:10.37,2013-01-31 03:19:00,
2013-01-30 22:24:00,36.7,33.8,29.15,West,281,24.2,24.2,89,0.00,CLR,,0.56,0.0,WeatherDisplay:10.37,2013-01-31 03:24:00,
2013-01-30 22:29:00,36.4,33.7,29.15,WNW,284,19.6,19.6,90,0.00,CLR,,0.56,0.0,WeatherDisplay:10.37,2013-01-31 03:29:00,
2013-01-30 22:34:00,35.9,33.0,29.15,West,279,17.0,17.0,89,0.00,CLR,,0.56,0.0,WeatherDisplay:10.37,2013-01-31 03:34:00,
2013-01-30 22:39:00,35.1,32.2,29.16,NW,312,21.9,21.9,89,0.00,CLR,,0.56,0.0,WeatherDisplay:10.37,2013-01-31 03:39:00,
2013-01-30 22:44:00,34.7,32.1,29.16,WSW,248,17.0,17.0,90,0.00,CLR,,0.56,0.0,WeatherDisplay:10.37,2013-01-31 03:44:00,
2013-01-30 22:49:00,34.4,31.8,29.16,West,263,18.4,18.4,90,0.00,CLR,,0.56,0.0,WeatherDisplay:10.37,2013-01-31 03:49:00,
2013-01-30 22:54:00,34.2,31.6,29.17,West,271,19.6,19.6,90,0.00,CLR,,0.56,0.0,WeatherDisplay:10.37,2013-01-31 03:54:00,
2013-01-30 22:59:00,33.9,31.0,29.17,West,280,19.6,19.6,89,0.00,CLR,,0.56,0.0,WeatherDisplay:10.37,2013-01-31 03:59:00,
2013-01-30 23:04:00,33.6,30.4,29.18,WNW,300,23.0,23.0,88,0.00,CLR,,0.56,0.0,WeatherDisplay:10.37,2013-01-31 04:04:00,
2013-01-30 23:09:00,33.5,30.3,29.18,West,260,26.5,26.5,88,0.00,CLR,,0.56,0.0,WeatherDisplay:10.37,2013-01-31 04:09:00,
2013-01-30 23:14:00,33.4,30.2,29.18,West,281,16.1,16.1,88,0.00,CLR,,0.56,0.0,WeatherDisplay:10.37,2013-01-31 04:14:00,
2013-01-30 23:19:00,33.3,29.6,29.19,WSW,252,19.6,19.6,86,0.00,CLR,,0.56,0.0,WeatherDisplay:10.37,2013-01-31 04:19:00,
2013-01-30 23:25:00,33.1,29.1,29.20,NW,325,24.2,24.2,85,0.00,CLR,,0.56,0.0,WeatherDisplay:10.37,2013-01-31 04:25:00,
2013-01-30 23:30:00,33.0,29.0,29.20,WNW,285,24.2,24.2,85,0.00,CLR,,0.56,0.0,WeatherDisplay:10.37,2013-01-31 04:30:00,
2013-01-30 23:35:00,32.8,29.1,29.20,West,278,19.6,19.6,86,0.00,CLR,,0.56,0.0,WeatherDisplay:10.37,2013-01-31 04:35:00,
2013-01-30 23:40:00,32.7,29.3,29.20,WNW,296,22.0,22.0,87,0.00,CLR,,0.56,0.0,WeatherDisplay:10.37,2013-01-31 04:40:00,
2013-01-30 23:45:00,32.6,28.9,29.20,WNW,291,20.7,20.7,86,0.00,CLR,,0.56,0.0,WeatherDisplay:10.37,2013-01-31 04:45:00,
2013-01-30 23:50:00,32.5,28.8,29.21,WSW,252,18.4,18.4,86,0.00,CLR,,0.56,0.0,WeatherDisplay:10.37,2013-01-31 04:50:00,
2013-01-30 23:55:00,32.4,28.7,29.21,WSW,246,26.5,26.5,86,0.00,CLR,,0.56,0.0,WeatherDisplay:10.37,2013-01-31 04:55:00,